Terminal Aerodrome Forecast
Issued by NWS

Home | Current Version | Previous Version | Text Only | Print | Product List | Glossary On
Versions: 1 2 3 4 5 6 7 8 9 10 11 12 13 14 15 16 17 18 19 20 21 22 23 24 25 26 27 28 29
061
FTUS43 KGRR 111219 AAA
TAFMKG
TAF AMD
KMKG 111219Z 1112/1212 11008KT 3SM -SN BKN028 OVC035
     FM111300 18012KT 1 1/2SM -SN BR OVC008
     FM111600 18012KT P6SM VCSH OVC012
     FM112000 20008KT 3/4SM -SN BR OVC005
     FM120300 32015G26KT 4SM -SHSN OVC015
     FM120500 34022G35KT 1 1/2SM -SN BR VV009=

USA.gov is the U.S. government's official web portal to all federal, state and local government web resources and services.